sensor_id;sensor_type;location;lat;lon;timestamp;pressure;altitude;pressure_sealevel;temperature;humidity
30636;BME280;17400;52.392;9.750;2022-07-29T04:01:27;101128.06;;;17.98;58.82
30636;BME280;17400;52.392;9.750;2022-07-29T04:03:56;101121.75;;;17.98;58.31
30636;BME280;17400;52.392;9.750;2022-07-29T04:06:24;101128.75;;;17.94;59.37
30636;BME280;17400;52.392;9.750;2022-07-29T04:08:53;101124.38;;;17.93;59.63
30636;BME280;17400;52.392;9.750;2022-07-29T04:11:20;101129.00;;;17.92;59.35
30636;BME280;17400;52.392;9.750;2022-07-29T04:13:50;101130.88;;;17.92;59.81
30636;BME280;17400;52.392;9.750;2022-07-29T04:16:17;101119.91;;;17.92;59.60
30636;BME280;17400;52.392;9.750;2022-07-29T04:18:46;101123.88;;;17.96;59.16
30636;BME280;17400;52.392;9.750;2022-07-29T04:21:14;101129.13;;;17.97;59.97
30636;BME280;17400;52.392;9.750;2022-07-29T04:23:42;101132.59;;;18.05;59.45
30636;BME280;17400;52.392;9.750;2022-07-29T04:26:20;101131.28;;;18.07;58.77
30636;BME280;17400;52.392;9.750;2022-07-29T04:28:47;101132.59;;;18.05;59.68
30636;BME280;17400;52.392;9.750;2022-07-29T04:31:15;101128.75;;;17.94;60.07
30636;BME280;17400;52.392;9.750;2022-07-29T04:33:50;101132.34;;;17.94;60.54
30636;BME280;17400;52.392;9.750;2022-07-29T04:36:18;101130.25;;;17.90;60.10
30636;BME280;17400;52.392;9.750;2022-07-29T04:38:55;101134.84;;;17.96;60.03
30636;BME280;17400;52.392;9.750;2022-07-29T04:41:23;101141.81;;;17.80;61.71
30636;BME280;17400;52.392;9.750;2022-07-29T04:43:59;101142.13;;;17.60;62.93
30636;BME280;17400;52.392;9.750;2022-07-29T04:46:27;101140.69;;;17.57;63.26
30636;BME280;17400;52.392;9.750;2022-07-29T04:48:56;101145.00;;;17.65;62.46
30636;BME280;17400;52.392;9.750;2022-07-29T04:51:24;101141.44;;;17.76;61.60
30636;BME280;17400;52.392;9.750;2022-07-29T04:53:52;101143.09;;;17.77;62.77
30636;BME280;17400;52.392;9.750;2022-07-29T04:56:19;101131.66;;;17.80;61.55
30636;BME280;17400;52.392;9.750;2022-07-29T04:58:47;101128.00;;;17.87;62.25
30636;BME280;17400;52.392;9.750;2022-07-29T05:01:15;101131.22;;;17.84;61.58
30636;BME280;17400;52.392;9.750;2022-07-29T05:03:42;101136.59;;;17.90;61.37
30636;BME280;17400;52.392;9.750;2022-07-29T05:06:12;101136.13;;;17.93;61.33
30636;BME280;17400;52.392;9.750;2022-07-29T05:08:39;101129.34;;;17.96;62.01
30636;BME280;17400;52.392;9.750;2022-07-29T05:11:07;101134.22;;;17.94;61.98
30636;BME280;17400;52.392;9.750;2022-07-29T05:13:38;101128.75;;;17.94;62.26
30636;BME280;17400;52.392;9.750;2022-07-29T05:16:12;101134.78;;;17.84;63.04
30636;BME280;17400;52.392;9.750;2022-07-29T05:18:40;101134.97;;;17.59;65.16
30636;BME280;17400;52.392;9.750;2022-07-29T05:21:08;101144.88;;;17.72;64.44
30636;BME280;17400;52.392;9.750;2022-07-29T05:23:37;101137.34;;;17.67;65.39
30636;BME280;17400;52.392;9.750;2022-07-29T05:26:05;101143.31;;;17.64;65.37
30636;BME280;17400;52.392;9.750;2022-07-29T05:28:33;101140.22;;;17.72;64.60
30636;BME280;17400;52.392;9.750;2022-07-29T05:31:01;101142.41;;;17.82;64.28
30636;BME280;17400;52.392;9.750;2022-07-29T05:33:29;101131.91;;;17.79;64.29
30636;BME280;17400;52.392;9.750;2022-07-29T05:36:03;101129.69;;;17.88;63.98
30636;BME280;17400;52.392;9.750;2022-07-29T05:38:31;101133.91;;;18.02;64.22
30636;BME280;17400;52.392;9.750;2022-07-29T05:41:00;101132.94;;;18.08;63.65
30636;BME280;17400;52.392;9.750;2022-07-29T05:43:28;101130.69;;;18.05;64.62
30636;BME280;17400;52.392;9.750;2022-07-29T05:45:56;101133.03;;;18.02;63.79
30636;BME280;17400;52.392;9.750;2022-07-29T05:48:24;101135.09;;;18.06;63.35
30636;BME280;17400;52.392;9.750;2022-07-29T05:50:52;101143.06;;;18.08;64.17
30636;BME280;17400;52.392;9.750;2022-07-29T05:53:20;101135.16;;;17.88;65.59
30636;BME280;17400;52.392;9.750;2022-07-29T05:55:48;101134.84;;;17.96;65.54
30636;BME280;17400;52.392;9.750;2022-07-29T05:58:17;101135.03;;;17.82;66.67
30636;BME280;17400;52.392;9.750;2022-07-29T06:00:45;101138.63;;;17.95;66.17
30636;BME280;17400;52.392;9.750;2022-07-29T06:03:12;101133.66;;;18.04;64.61
30636;BME280;17400;52.392;9.750;2022-07-29T06:05:40;101134.72;;;18.14;64.11
30636;BME280;17400;52.392;9.750;2022-07-29T06:08:08;101132.13;;;18.20;63.94
30636;BME280;17400;52.392;9.750;2022-07-29T06:10:36;101131.38;;;18.24;64.26
30636;BME280;17400;52.392;9.750;2022-07-29T06:13:03;101130.69;;;18.29;64.03
30636;BME280;17400;52.392;9.750;2022-07-29T06:15:33;101124.00;;;18.37;63.35
30636;BME280;17400;52.392;9.750;2022-07-29T06:18:00;101118.91;;;18.40;63.89
30636;BME280;17400;52.392;9.750;2022-07-29T06:20:29;101128.53;;;18.43;64.52
30636;BME280;17400;52.392;9.750;2022-07-29T06:22:58;101124.97;;;18.19;66.12
30636;BME280;17400;52.392;9.750;2022-07-29T06:25:27;101123.28;;;18.18;65.90
30636;BME280;17400;52.392;9.750;2022-07-29T06:27:56;101126.28;;;18.28;66.63
30636;BME280;17400;52.392;9.750;2022-07-29T06:30:24;101121.72;;;18.45;65.20
30636;BME280;17400;52.392;9.750;2022-07-29T06:32:53;101112.75;;;18.74;64.03
30636;BME280;17400;52.392;9.750;2022-07-29T06:35:21;101117.34;;;18.97;62.63
30636;BME280;17400;52.392;9.750;2022-07-29T06:38:07;101112.09;;;19.07;62.36
30636;BME280;17400;52.392;9.750;2022-07-29T06:40:55;101113.41;;;19.05;61.97
30636;BME280;17400;52.392;9.750;2022-07-29T06:43:31;101111.78;;;18.80;64.29
30636;BME280;17400;52.392;9.750;2022-07-29T06:46:17;101119.31;;;18.73;64.74
30636;BME280;17400;52.392;9.750;2022-07-29T06:48:47;101117.75;;;18.77;64.32
30636;BME280;17400;52.392;9.750;2022-07-29T06:51:16;101111.19;;;18.90;64.43
30636;BME280;17400;52.392;9.750;2022-07-29T06:53:49;101116.88;;;19.00;64.22
30636;BME280;17400;52.392;9.750;2022-07-29T06:56:29;101111.00;;;19.08;63.28
30636;BME280;17400;52.392;9.750;2022-07-29T06:59:04;101102.22;;;19.23;62.89
30636;BME280;17400;52.392;9.750;2022-07-29T07:01:31;101102.72;;;19.20;63.69
30636;BME280;17400;52.392;9.750;2022-07-29T07:04:02;101110.25;;;19.13;63.53
30636;BME280;17400;52.392;9.750;2022-07-29T07:06:29;101108.72;;;19.17;63.57
30636;BME280;17400;52.392;9.750;2022-07-29T07:08:57;101111.31;;;19.24;63.33
30636;BME280;17400;52.392;9.750;2022-07-29T07:11:25;101110.47;;;19.23;62.90
30636;BME280;17400;52.392;9.750;2022-07-29T07:13:53;101115.22;;;19.28;62.78
30636;BME280;17400;52.392;9.750;2022-07-29T07:16:27;101113.75;;;19.37;62.66
30636;BME280;17400;52.392;9.750;2022-07-29T07:18:55;101111.88;;;19.26;63.20
30636;BME280;17400;52.392;9.750;2022-07-29T07:21:25;101117.47;;;19.31;63.18
30636;BME280;17400;52.392;9.750;2022-07-29T07:23:56;101114.63;;;19.55;61.82
30636;BME280;17400;52.392;9.750;2022-07-29T07:26:24;101118.19;;;19.72;61.21
30636;BME280;17400;52.392;9.750;2022-07-29T07:28:51;101114.00;;;19.81;61.04
30636;BME280;17400;52.392;9.750;2022-07-29T07:31:19;101111.06;;;19.88;61.05
30636;BME280;17400;52.392;9.750;2022-07-29T07:33:47;101109.91;;;19.84;60.18
30636;BME280;17400;52.392;9.750;2022-07-29T07:36:14;101115.91;;;19.81;59.89
30636;BME280;17400;52.392;9.750;2022-07-29T07:38:43;101106.75;;;19.75;60.22
30636;BME280;17400;52.392;9.750;2022-07-29T07:41:11;101109.47;;;19.75;60.76
30636;BME280;17400;52.392;9.750;2022-07-29T07:43:39;101108.50;;;19.81;60.08
30636;BME280;17400;52.392;9.750;2022-07-29T07:46:07;101113.25;;;19.86;59.90
30636;BME280;17400;52.392;9.750;2022-07-29T07:48:34;101110.00;;;19.89;59.48
30636;BME280;17400;52.392;9.750;2022-07-29T07:51:02;101112.78;;;19.77;58.67
30636;BME280;17400;52.392;9.750;2022-07-29T07:53:30;101107.63;;;19.64;59.61
30636;BME280;17400;52.392;9.750;2022-07-29T07:55:59;101109.81;;;19.62;59.59
30636;BME280;17400;52.392;9.750;2022-07-29T07:58:42;101114.03;;;19.70;60.03
30636;BME280;17400;52.392;9.750;2022-07-29T08:01:10;101117.72;;;19.75;60.22
30636;BME280;17400;52.392;9.750;2022-07-29T08:03:38;101118.88;;;19.79;60.08
30636;BME280;17400;52.392;9.750;2022-07-29T08:06:05;101118.88;;;19.79;60.34
30636;BME280;17400;52.392;9.750;2022-07-29T08:08:33;101116.13;;;19.79;60.14
30636;BME280;17400;52.392;9.750;2022-07-29T08:11:02;101114.72;;;19.77;59.78
30636;BME280;17400;52.392;9.750;2022-07-29T08:13:35;101114.38;;;19.73;60.32
30636;BME280;17400;52.392;9.750;2022-07-29T08:16:03;101112.63;;;19.67;60.60
30636;BME280;17400;52.392;9.750;2022-07-29T08:18:39;101106.56;;;19.65;60.35
30636;BME280;17400;52.392;9.750;2022-07-29T08:21:07;101109.88;;;19.67;60.22
30636;BME280;17400;52.392;9.750;2022-07-29T08:23:35;101109.72;;;19.74;60.59
30636;BME280;17400;52.392;9.750;2022-07-29T08:26:15;101110.06;;;19.77;60.52
30636;BME280;17400;52.392;9.750;2022-07-29T08:28:45;101109.22;;;19.77;60.24
30636;BME280;17400;52.392;9.750;2022-07-29T08:31:16;101100.25;;;19.81;60.30
30636;BME280;17400;52.392;9.750;2022-07-29T08:33:44;101101.41;;;19.86;60.55
30636;BME280;17400;52.392;9.750;2022-07-29T08:36:12;101105.84;;;19.87;60.69
30636;BME280;17400;52.392;9.750;2022-07-29T08:38:40;101105.84;;;19.87;60.19
30636;BME280;17400;52.392;9.750;2022-07-29T08:41:07;101105.59;;;19.88;60.28
30636;BME280;17400;52.392;9.750;2022-07-29T08:43:36;101103.59;;;19.84;60.92
30636;BME280;17400;52.392;9.750;2022-07-29T08:46:04;101111.16;;;19.93;60.41
30636;BME280;17400;52.392;9.750;2022-07-29T08:48:32;101105.50;;;20.00;60.81
30636;BME280;17400;52.392;9.750;2022-07-29T08:51:00;101103.09;;;20.04;61.04
30636;BME280;17400;52.392;9.750;2022-07-29T08:53:30;101102.91;;;19.93;61.55
30636;BME280;17400;52.392;9.750;2022-07-29T08:55:58;101112.16;;;20.04;60.88
30636;BME280;17400;52.392;9.750;2022-07-29T08:58:26;101113.41;;;20.13;60.64
30636;BME280;17400;52.392;9.750;2022-07-29T09:00:56;101115.06;;;20.14;61.54
30636;BME280;17400;52.392;9.750;2022-07-29T09:03:27;101118.00;;;20.08;61.19
30636;BME280;17400;52.392;9.750;2022-07-29T09:05:58;101124.81;;;20.05;61.29
30636;BME280;17400;52.392;9.750;2022-07-29T09:08:25;101120.91;;;20.01;61.39
30636;BME280;17400;52.392;9.750;2022-07-29T09:10:54;101116.41;;;20.12;60.96
30636;BME280;17400;52.392;9.750;2022-07-29T09:13:22;101111.31;;;20.21;61.11
30636;BME280;17400;52.392;9.750;2022-07-29T09:15:50;101110.31;;;20.27;60.88
30636;BME280;17400;52.392;9.750;2022-07-29T09:21:13;101103.50;;;20.52;60.74
30636;BME280;17400;52.392;9.750;2022-07-29T09:24:12;101099.22;;;20.61;61.05
30636;BME280;17400;52.392;9.750;2022-07-29T09:26:43;101093.31;;;20.69;60.50
30636;BME280;17400;52.392;9.750;2022-07-29T09:29:12;101096.44;;;20.78;60.59
30636;BME280;17400;52.392;9.750;2022-07-29T09:31:42;101092.34;;;20.80;60.18
30636;BME280;17400;52.392;9.750;2022-07-29T09:34:11;101087.72;;;20.86;59.82
30636;BME280;17400;52.392;9.750;2022-07-29T09:36:42;101085.63;;;20.93;59.12
30636;BME280;17400;52.392;9.750;2022-07-29T09:39:11;101091.13;;;20.93;59.21
30636;BME280;17400;52.392;9.750;2022-07-29T09:41:45;101085.88;;;20.92;58.96
30636;BME280;17400;52.392;9.750;2022-07-29T09:44:13;101079.84;;;20.95;58.89
30636;BME280;17400;52.392;9.750;2022-07-29T09:46:54;101083.22;;;21.02;58.19
30636;BME280;17400;52.392;9.750;2022-07-29T09:49:24;101074.34;;;20.95;58.49
30636;BME280;17400;52.392;9.750;2022-07-29T09:52:06;101080.19;;;20.99;58.28
30636;BME280;17400;52.392;9.750;2022-07-29T09:54:35;101076.38;;;21.05;58.70
30636;BME280;17400;52.392;9.750;2022-07-29T09:57:08;101069.84;;;21.11;58.83
30636;BME280;17400;52.392;9.750;2022-07-29T09:59:39;101064.41;;;21.16;58.68
30636;BME280;17400;52.392;9.750;2022-07-29T10:02:16;101076.19;;;21.11;58.84
30636;BME280;17400;52.392;9.750;2022-07-29T10:04:49;101077.84;;;21.12;58.33
30636;BME280;17400;52.392;9.750;2022-07-29T10:07:18;101068.56;;;21.19;58.09
30636;BME280;17400;52.392;9.750;2022-07-29T10:09:52;101069.16;;;21.26;58.34
30636;BME280;17400;52.392;9.750;2022-07-29T10:12:21;101072.28;;;21.35;58.02
30636;BME280;17400;52.392;9.750;2022-07-29T10:14:50;101086.09;;;21.40;57.86
30636;BME280;17400;52.392;9.750;2022-07-29T10:17:18;101075.97;;;21.45;57.46
30636;BME280;17400;52.392;9.750;2022-07-29T10:19:46;101080.97;;;21.49;57.79
30636;BME280;17400;52.392;9.750;2022-07-29T10:22:15;101079.97;;;21.60;57.47
30636;BME280;17400;52.392;9.750;2022-07-29T10:25:04;101083.81;;;21.59;58.00
30636;BME280;17400;52.392;9.750;2022-07-29T10:27:32;101073.84;;;21.53;58.07
30636;BME280;17400;52.392;9.750;2022-07-29T10:29:59;101084.22;;;21.45;58.52
30636;BME280;17400;52.392;9.750;2022-07-29T10:33:05;101073.09;;;21.35;58.50
30636;BME280;17400;52.392;9.750;2022-07-29T10:35:59;101069.06;;;21.43;58.84
30636;BME280;17400;52.392;9.750;2022-07-29T10:38:45;101065.53;;;21.47;58.77
30636;BME280;17400;52.392;9.750;2022-07-29T10:41:53;101068.84;;;21.50;59.23
30636;BME280;17400;52.392;9.750;2022-07-29T10:44:25;101060.75;;;21.38;59.42
30636;BME280;17400;52.392;9.750;2022-07-29T10:46:55;101070.63;;;21.34;59.96
30636;BME280;17400;52.392;9.750;2022-07-29T10:49:25;101067.09;;;21.38;59.63
30636;BME280;17400;52.392;9.750;2022-07-29T10:52:02;101075.34;;;21.38;59.90
30636;BME280;17400;52.392;9.750;2022-07-29T10:54:52;101073.47;;;21.44;59.98
30636;BME280;17400;52.392;9.750;2022-07-29T10:57:28;101065.53;;;21.47;59.70
30636;BME280;17400;52.392;9.750;2022-07-29T11:00:28;101060.56;;;21.50;59.50
30636;BME280;17400;52.392;9.750;2022-07-29T11:02:56;101060.03;;;21.47;59.14
30636;BME280;17400;52.392;9.750;2022-07-29T11:05:25;101061.72;;;21.54;59.38
30636;BME280;17400;52.392;9.750;2022-07-29T11:08:26;101063.72;;;21.58;59.66
30636;BME280;17400;52.392;9.750;2022-07-29T11:14:04;101065.66;;;21.58;60.29
30636;BME280;17400;52.392;9.750;2022-07-29T11:16:59;101065.56;;;21.53;60.74
30636;BME280;17400;52.392;9.750;2022-07-29T11:19:31;101057.25;;;21.47;61.27
30636;BME280;17400;52.392;9.750;2022-07-29T11:22:01;101057.22;;;21.42;61.23
30636;BME280;17400;52.392;9.750;2022-07-29T11:24:31;101060.53;;;21.44;61.47
30636;BME280;17400;52.392;9.750;2022-07-29T11:27:21;101055.31;;;21.48;61.87
30636;BME280;17400;52.392;9.750;2022-07-29T11:29:56;101054.25;;;21.49;61.56
30636;BME280;17400;52.392;9.750;2022-07-29T11:32:36;101057.91;;;21.55;61.40
30636;BME280;17400;52.392;9.750;2022-07-29T11:35:15;101054.38;;;21.59;61.64
30636;BME280;17400;52.392;9.750;2022-07-29T11:38:23;101062.41;;;21.66;61.55
30636;BME280;17400;52.392;9.750;2022-07-29T11:41:21;101052.50;;;21.70;61.43
30636;BME280;17400;52.392;9.750;2022-07-29T11:43:52;101053.34;;;21.71;61.70
30636;BME280;17400;52.392;9.750;2022-07-29T11:46:44;101052.56;;;21.75;61.14
30636;BME280;17400;52.392;9.750;2022-07-29T11:49:13;101050.41;;;21.83;61.49
30636;BME280;17400;52.392;9.750;2022-07-29T11:51:50;101046.31;;;21.90;60.78
30636;BME280;17400;52.392;9.750;2022-07-29T11:54:23;101050.78;;;21.96;60.97
30636;BME280;17400;52.392;9.750;2022-07-29T11:57:11;101040.56;;;21.97;60.05
30636;BME280;17400;52.392;9.750;2022-07-29T11:59:43;101038.44;;;22.04;60.04
30636;BME280;17400;52.392;9.750;2022-07-29T12:02:14;101046.19;;;22.12;59.73
30636;BME280;17400;52.392;9.750;2022-07-29T12:05:03;101042.38;;;22.19;59.39
30636;BME280;17400;52.392;9.750;2022-07-29T12:07:37;101038.50;;;22.20;58.95
30636;BME280;17400;52.392;9.750;2022-07-29T12:10:11;101037.44;;;22.26;58.86
30636;BME280;17400;52.392;9.750;2022-07-29T12:12:55;101032.50;;;22.33;58.91
30636;BME280;17400;52.392;9.750;2022-07-29T12:15:22;101032.56;;;22.38;57.88
30636;BME280;17400;52.392;9.750;2022-07-29T12:18:14;101033.69;;;22.48;58.11
30636;BME280;17400;52.392;9.750;2022-07-29T12:20:44;101029.06;;;22.53;57.90
30636;BME280;17400;52.392;9.750;2022-07-29T12:23:12;101021.59;;;22.54;56.87
30636;BME280;17400;52.392;9.750;2022-07-29T12:25:43;101015.53;;;22.57;56.98
30636;BME280;17400;52.392;9.750;2022-07-29T12:28:15;101016.91;;;22.59;56.49
30636;BME280;17400;52.392;9.750;2022-07-29T12:30:53;101013.34;;;22.59;56.69
30636;BME280;17400;52.392;9.750;2022-07-29T12:33:24;101015.81;;;22.60;56.42
30636;BME280;17400;52.392;9.750;2022-07-29T12:35:54;101015.56;;;22.67;56.41
30636;BME280;17400;52.392;9.750;2022-07-29T12:38:33;101017.22;;;22.68;56.42
30636;BME280;17400;52.392;9.750;2022-07-29T12:41:02;101012.00;;;22.72;56.32
30636;BME280;17400;52.392;9.750;2022-07-29T12:43:31;101007.59;;;22.76;56.32
30636;BME280;17400;52.392;9.750;2022-07-29T12:46:11;101013.13;;;22.81;56.00
30636;BME280;17400;52.392;9.750;2022-07-29T12:48:42;101010.09;;;22.88;56.34
30636;BME280;17400;52.392;9.750;2022-07-29T12:51:11;101001.00;;;22.92;55.04
30636;BME280;17400;52.392;9.750;2022-07-29T12:53:41;101005.44;;;22.99;55.12
30636;BME280;17400;52.392;9.750;2022-07-29T12:56:15;100995.78;;;23.06;55.19
30636;BME280;17400;52.392;9.750;2022-07-29T12:59:11;101004.13;;;23.17;54.38
30636;BME280;17400;52.392;9.750;2022-07-29T13:01:40;100995.81;;;23.22;53.34
30636;BME280;17400;52.392;9.750;2022-07-29T13:04:09;100997.47;;;23.28;52.61
30636;BME280;17400;52.392;9.750;2022-07-29T13:06:39;100991.97;;;23.33;52.66
30636;BME280;17400;52.392;9.750;2022-07-29T13:09:09;100988.63;;;23.36;52.18
30636;BME280;17400;52.392;9.750;2022-07-29T13:11:39;100982.56;;;23.39;51.93
30636;BME280;17400;52.392;9.750;2022-07-29T13:14:20;100989.19;;;23.43;51.91
30636;BME280;17400;52.392;9.750;2022-07-29T13:17:02;100988.63;;;23.46;51.86
30636;BME280;17400;52.392;9.750;2022-07-29T13:19:37;100987.81;;;23.51;52.28
30636;BME280;17400;52.392;9.750;2022-07-29T13:22:07;100990.84;;;23.55;52.29
30636;BME280;17400;52.392;9.750;2022-07-29T13:24:45;100986.97;;;23.56;51.23
30636;BME280;17400;52.392;9.750;2022-07-29T13:27:14;100978.41;;;23.57;51.74
30636;BME280;17400;52.392;9.750;2022-07-29T13:29:43;100974.53;;;23.58;51.72
30636;BME280;17400;52.392;9.750;2022-07-29T13:32:11;100978.09;;;23.64;51.27
30636;BME280;17400;52.392;9.750;2022-07-29T13:34:40;100973.97;;;23.67;50.68
30636;BME280;17400;52.392;9.750;2022-07-29T13:37:08;100977.00;;;23.70;50.32
30636;BME280;17400;52.392;9.750;2022-07-29T13:39:35;100971.47;;;23.70;49.52
30636;BME280;17400;52.392;9.750;2022-07-29T13:42:04;100961.22;;;23.71;48.42
30636;BME280;17400;52.392;9.750;2022-07-29T13:44:36;100958.22;;;23.72;48.65
30636;BME280;17400;52.392;9.750;2022-07-29T13:47:04;100956.81;;;23.80;47.23
30636;BME280;17400;52.392;9.750;2022-07-29T13:49:32;100950.16;;;23.86;46.73
30636;BME280;17400;52.392;9.750;2022-07-29T13:52:02;100950.44;;;23.90;47.50
30636;BME280;17400;52.392;9.750;2022-07-29T13:54:29;100949.59;;;23.94;46.05
30636;BME280;17400;52.392;9.750;2022-07-29T13:56:57;100951.50;;;24.04;45.94
30636;BME280;17400;52.392;9.750;2022-07-29T13:59:25;100944.59;;;24.07;46.60
30636;BME280;17400;52.392;9.750;2022-07-29T14:01:52;100943.44;;;24.13;47.00
30636;BME280;17400;52.392;9.750;2022-07-29T14:04:20;100937.50;;;24.45;45.59
30636;BME280;17400;52.392;9.750;2022-07-29T14:06:49;100937.66;;;25.04;44.60
30636;BME280;17400;52.392;9.750;2022-07-29T14:09:18;100936.25;;;25.41;43.20
30636;BME280;17400;52.392;9.750;2022-07-29T14:11:46;100936.91;;;25.87;41.57
30636;BME280;17400;52.392;9.750;2022-07-29T14:14:16;100943.00;;;26.13;40.46
30636;BME280;17400;52.392;9.750;2022-07-29T14:16:44;100939.38;;;26.13;40.47
30636;BME280;17400;52.392;9.750;2022-07-29T14:19:15;100935.13;;;25.96;40.85
30636;BME280;17400;52.392;9.750;2022-07-29T14:21:43;100933.69;;;25.74;41.49
30636;BME280;17400;52.392;9.750;2022-07-29T14:24:11;100937.63;;;25.73;40.64
30636;BME280;17400;52.392;9.750;2022-07-29T14:26:48;100936.41;;;25.80;40.53
30636;BME280;17400;52.392;9.750;2022-07-29T14:29:16;100934.88;;;25.92;40.61
30636;BME280;17400;52.392;9.750;2022-07-29T14:31:43;100930.13;;;26.41;39.32
30636;BME280;17400;52.392;9.750;2022-07-29T14:34:11;100929.53;;;26.83;39.52
30636;BME280;17400;52.392;9.750;2022-07-29T14:36:39;100925.78;;;26.92;38.79
30636;BME280;17400;52.392;9.750;2022-07-29T14:39:07;100921.13;;;26.88;38.66
30636;BME280;17400;52.392;9.750;2022-07-29T14:41:34;100924.94;;;26.92;38.91
30636;BME280;17400;52.392;9.750;2022-07-29T14:44:03;100914.38;;;26.94;38.06
30636;BME280;17400;52.392;9.750;2022-07-29T14:46:31;100914.38;;;26.94;38.19
30636;BME280;17400;52.392;9.750;2022-07-29T14:48:59;100911.31;;;27.09;38.11
30636;BME280;17400;52.392;9.750;2022-07-29T14:51:27;100916.72;;;27.20;37.91
30636;BME280;17400;52.392;9.750;2022-07-29T14:53:58;100912.81;;;27.21;37.70
30636;BME280;17400;52.392;9.750;2022-07-29T14:56:25;100910.56;;;27.23;37.24
30636;BME280;17400;52.392;9.750;2022-07-29T14:59:13;100911.94;;;27.06;37.89
30636;BME280;17400;52.392;9.750;2022-07-29T15:01:41;100911.31;;;27.09;36.94
30636;BME280;17400;52.392;9.750;2022-07-29T15:04:09;100902.31;;;27.18;37.15
30636;BME280;17400;52.392;9.750;2022-07-29T15:06:36;100911.69;;;27.22;36.16
30636;BME280;17400;52.392;9.750;2022-07-29T15:09:04;100903.63;;;27.53;36.32
30636;BME280;17400;52.392;9.750;2022-07-29T15:11:32;100909.38;;;27.43;36.64
30636;BME280;17400;52.392;9.750;2022-07-29T15:14:04;100903.38;;;27.03;36.62
30636;BME280;17400;52.392;9.750;2022-07-29T15:16:35;100908.50;;;26.96;37.69
30636;BME280;17400;52.392;9.750;2022-07-29T15:19:03;100906.44;;;26.87;37.12
30636;BME280;17400;52.392;9.750;2022-07-29T15:21:31;100906.09;;;26.70;37.11
30636;BME280;17400;52.392;9.750;2022-07-29T15:23:58;100910.25;;;26.53;37.60
30636;BME280;17400;52.392;9.750;2022-07-29T15:26:26;100906.94;;;26.51;37.37
30636;BME280;17400;52.392;9.750;2022-07-29T15:28:53;100909.19;;;26.49;37.63
30636;BME280;17400;52.392;9.750;2022-07-29T15:31:22;100909.06;;;26.59;37.58
30636;BME280;17400;52.392;9.750;2022-07-29T15:33:51;100904.25;;;26.65;37.84
30636;BME280;17400;52.392;9.750;2022-07-29T15:36:24;100895.25;;;26.73;37.27
30636;BME280;17400;52.392;9.750;2022-07-29T15:39:12;100898.63;;;26.70;37.50
30636;BME280;17400;52.392;9.750;2022-07-29T15:41:40;100888.19;;;26.62;35.37
30636;BME280;17400;52.392;9.750;2022-07-29T15:44:07;100891.34;;;26.55;35.75
30636;BME280;17400;52.392;9.750;2022-07-29T15:46:35;100889.22;;;26.47;35.48
30636;BME280;17400;52.392;9.750;2022-07-29T15:49:22;100893.00;;;26.37;36.24
30636;BME280;17400;52.392;9.750;2022-07-29T15:52:15;100893.38;;;26.31;36.85
30636;BME280;17400;52.392;9.750;2022-07-29T15:54:44;100890.44;;;26.22;36.77
30636;BME280;17400;52.392;9.750;2022-07-29T15:57:12;100889.16;;;26.14;37.60
30636;BME280;17400;52.392;9.750;2022-07-29T15:59:40;100882.03;;;26.08;37.00
30636;BME280;17400;52.392;9.750;2022-07-29T16:02:07;100889.31;;;26.04;36.10
30636;BME280;17400;52.392;9.750;2022-07-29T16:04:37;100884.09;;;25.97;35.79
30636;BME280;17400;52.392;9.750;2022-07-29T16:07:05;100878.06;;;25.90;36.52
30636;BME280;17400;52.392;9.750;2022-07-29T16:09:33;100880.59;;;25.86;35.95
30636;BME280;17400;52.392;9.750;2022-07-29T16:12:01;100875.66;;;25.83;36.38
30636;BME280;17400;52.392;9.750;2022-07-29T16:14:36;100878.78;;;25.76;36.47
30636;BME280;17400;52.392;9.750;2022-07-29T16:17:04;100885.19;;;25.72;36.15
30636;BME280;17400;52.392;9.750;2022-07-29T16:19:31;100881.09;;;25.69;36.22
30636;BME280;17400;52.392;9.750;2022-07-29T16:22:00;100878.59;;;25.68;36.52
30636;BME280;17400;52.392;9.750;2022-07-29T16:24:28;100873.06;;;25.68;36.41
30636;BME280;17400;52.392;9.750;2022-07-29T16:26:59;100870.53;;;25.71;36.22
30636;BME280;17400;52.392;9.750;2022-07-29T16:29:27;100870.53;;;25.71;37.02
30636;BME280;17400;52.392;9.750;2022-07-29T16:31:55;100873.91;;;25.68;36.73
30636;BME280;17400;52.392;9.750;2022-07-29T16:34:23;100870.59;;;25.66;37.20
30636;BME280;17400;52.392;9.750;2022-07-29T16:36:50;100865.59;;;25.68;36.75
30636;BME280;17400;52.392;9.750;2022-07-29T16:39:19;100877.78;;;25.67;36.72
30636;BME280;17400;52.392;9.750;2022-07-29T16:41:47;100867.81;;;25.66;37.10
30636;BME280;17400;52.392;9.750;2022-07-29T16:44:14;100871.69;;;25.65;37.27
30636;BME280;17400;52.392;9.750;2022-07-29T16:46:43;100876.13;;;25.66;37.88
30636;BME280;17400;52.392;9.750;2022-07-29T16:49:11;100876.13;;;25.66;37.47
30636;BME280;17400;52.392;9.750;2022-07-29T16:51:44;100876.44;;;25.65;37.30
30636;BME280;17400;52.392;9.750;2022-07-29T16:54:13;100869.78;;;25.66;37.19
30636;BME280;17400;52.392;9.750;2022-07-29T16:56:42;100873.97;;;25.63;37.08
30636;BME280;17400;52.392;9.750;2022-07-29T16:59:09;100871.53;;;25.56;36.67
30636;BME280;17400;52.392;9.750;2022-07-29T17:01:39;100865.75;;;25.53;36.49
30636;BME280;17400;52.392;9.750;2022-07-29T17:04:07;100866.34;;;25.50;36.84
30636;BME280;17400;52.392;9.750;2022-07-29T17:06:37;100871.66;;;25.46;37.02
30636;BME280;17400;52.392;9.750;2022-07-29T17:09:07;100868.13;;;25.40;37.50
30636;BME280;17400;52.392;9.750;2022-07-29T17:11:35;100873.72;;;25.35;37.78
30636;BME280;17400;52.392;9.750;2022-07-29T17:14:22;100878.66;;;25.33;37.60
30636;BME280;17400;52.392;9.750;2022-07-29T17:16:51;100878.16;;;25.31;37.81
30636;BME280;17400;52.392;9.750;2022-07-29T17:19:28;100877.59;;;25.29;37.62